LFPTLFRG

Guest
Details From LFPT - Pontoise Cormeilles En Vexin
To LFRG - Deauville Saint Gatien
Flight Number -
Tags generated
Created
Modified
Stats Distance 76 nm / 140 km
Max Altitude 5,500 ft / 1,676 m
Waypoints 3
Social Downloads 1
Likes 0
Share VATSIM

Download

Looking for another format? Having issues loading an existing format? Contact us
Advertisement - Login to hide

Notes

Basic altitude profile: - Ascent Rate: 1000ft/min - Ascent Speed: 160kts - Cruise Altitude: 4ft - Cruise Speed: 160kts - Descent Rate: 1500ft/min - Descent Speed: 250kts Options: - Use NATs: yes - Use PACOTS: yes - Use low airways: yes - Use high airways: yes

Route

LFPT ELBOX LFRG

ID Type Via Altitude Latitude Longitude Leg Dist Tot Dist Heading (true) Name
O LFPT APT - 0 ft / 0 m 49.09579˚ 2.03558˚ - 0 nm - Pontoise Cormeilles En Vexin
ELBOX FIX - 5,500 ft / 1,676 m 49.28639˚ 0.80778˚ 49 nm 49 nm 284° / 283° -
O LFRG APT - 0 ft / 0 m 49.36530˚ 0.15432˚ 26 nm 75 nm 281° / 280° Deauville Saint Gatien

Altitude Profile

Advertisement - Login to hide

LFPT

Details ICAO LFPT (POX)
Name Pontoise Cormeilles En Vexin
Region France
Timezone Europe/Paris (UTC+1.0)
Stats Elevation 325 ft / 99 m (AMSL)
Location 49.095793° 2.035583°
Runways 2
Magnetic Variation 0.476° E

METAR

LFPT 181300Z AUTO 01010KT 9999 FEW020 BKN054 08/04 Q1027

Decode

TAF

Not found

Departure Runways

ID Width Length Bearing (true) Bearing (mag) Surface Threshold Offset Overrun Length
05 164 ft / 50 m 5,535 ft / 1,687 m 44.55° 44.07° Asphalt 0 ft / 0 m 0 ft / 0 m
12 164 ft / 50 m 5,403 ft / 1,647 m 118.18° 117.70° Asphalt 197 ft / 60 m 0 ft / 0 m
23 164 ft / 50 m 5,535 ft / 1,687 m 224.57° 224.09° Asphalt 558 ft / 170 m 0 ft / 0 m
30 164 ft / 50 m 5,403 ft / 1,647 m 298.20° 297.72° Asphalt 584 ft / 178 m 0 ft / 0 m

LFRG

Details ICAO LFRG (DOL)
Name Deauville Saint Gatien
Region France
Timezone Europe/Paris (UTC+1.0)
Stats Elevation 479 ft / 146 m (AMSL)
Location 49.365296° 0.154324°
Runways 1
Magnetic Variation 0.140° W

METAR

LFRG 181300Z AUTO 04006KT 350V090 CAVOK 09/02 Q1029 NOSIG

Decode

TAF

Not found

Destination Runways

ID Width Length Bearing (true) Bearing (mag) Surface Threshold Offset Overrun Length
12 148 ft / 45 m 8,344 ft / 2,543 m 117.22° 117.36° Asphalt 1,476 ft / 450 m 0 ft / 0 m
30 148 ft / 45 m 8,344 ft / 2,543 m 297.25° 297.39° Asphalt 1,378 ft / 420 m 0 ft / 0 m

Approach Navaids

Runway Type Ident Frequency Range Bearing (true) Bearing (mag) Slope Elevation
30 Localiser DV 111.55 MHz 18 nm / 33 km 297.22° 297.36° - 479 ft / 146 m (AMSL)
30 Glidescope DV 111.55 MHz 10 nm / 19 km 297.23° 297.37° 3.00° 479 ft / 146 m (AMSL)
30 DME DV 111.55 MHz 18 nm / 33 km - - - 466 ft / 142 m (AMSL)

Popular Alternatives